Terminal Aerodrome Forecast
Issued by NWS

Home | Current Version | Previous Version | Text Only | Print | Product List | Glossary On
Versions: 1 2 3 4 5 6 7 8 9 10 11 12 13 14 15 16
000
FTAK31 PAFA 071237 AAA
TAFAQT
TAF AMD
PAQT 071237Z 0713/0812 19005KT 4SM BR BKN002
      TEMPO 0713/0717 6SM BR SCT002
     FM071700 19004KT P6SM SCT002=

USA.gov is the U.S. government's official web portal to all federal, state and local government web resources and services.